Time;durP1;ratioP1;P1;durP2;ratioP2;P2;SDS_P1;SDS_P2;PMS_P1;PMS_P2;Temp;Humidity;BMP_temperature;BMP_pressure;BME280_temperature;BME280_humidity;BME280_pressure;Samples;Min_cycle;Max_cycle;Signal;HPM_P1;HPM_P2
2022/12/19 00:00:16;;;;;;;22.73;12.65;;;;;;;5.49;83.78;101583.59;5070306;28;20017;-36
2022/12/19 00:02:42;;;;;;;21.65;12.60;;;;;;;5.61;83.87;101584.38;5070192;28;20030;-36
2022/12/19 00:05:07;;;;;;;23.40;13.10;;;;;;;5.41;85.70;101581.56;5070289;28;20098;-36
2022/12/19 00:07:33;;;;;;;20.25;12.80;;;;;;;5.54;84.19;101588.47;5069088;28;20445;-36
2022/12/19 00:09:58;;;;;;;22.05;12.45;;;;;;;5.59;83.68;101586.31;5070612;28;20024;-36
2022/12/19 00:12:23;;;;;;;20.15;12.40;;;;;;;5.80;83.93;101589.81;5070641;28;20097;-36
2022/12/19 00:14:49;;;;;;;23.23;13.80;;;;;;;5.73;84.06;101593.09;5070362;28;20437;-36
2022/12/19 00:17:14;;;;;;;24.20;13.27;;;;;;;5.71;83.45;101595.84;5070131;28;20129;-36
2022/12/19 00:19:40;;;;;;;23.92;12.70;;;;;;;5.58;83.91;101596.03;5070511;28;20057;-37
2022/12/19 00:22:05;;;;;;;25.75;13.38;;;;;;;5.67;82.21;101595.28;5070613;28;20107;-37
2022/12/19 00:24:30;;;;;;;23.27;13.32;;;;;;;5.86;82.61;101607.81;5070872;28;20058;-37
2022/12/19 00:26:56;;;;;;;21.60;13.25;;;;;;;5.86;81.37;101604.31;5070697;28;20021;-37
2022/12/19 00:29:21;;;;;;;24.77;13.77;;;;;;;5.59;82.73;101602.16;5068680;28;20024;-37
2022/12/19 00:31:46;;;;;;;22.88;13.60;;;;;;;5.51;82.78;101607.22;5069923;28;20024;-35
2022/12/19 00:34:12;;;;;;;24.58;13.38;;;;;;;5.60;82.21;101603.84;5070250;28;20434;-36
2022/12/19 00:36:37;;;;;;;25.33;13.45;;;;;;;5.82;81.08;101609.00;5070181;28;20024;-37
2022/12/19 00:39:05;;;;;;;23.50;13.30;;;;;;;5.71;80.13;101601.13;5070277;28;20024;-37
2022/12/19 00:41:32;;;;;;;22.27;13.25;;;;;;;5.73;79.01;101617.72;5070172;28;20033;-37
2022/12/19 00:44:01;;;;;;;23.15;13.38;;;;;;;5.92;79.29;101618.81;5070046;28;20579;-35
2022/12/19 00:46:28;;;;;;;24.07;13.13;;;;;;;5.84;79.19;101616.81;5070079;28;20484;-37
2022/12/19 00:48:54;;;;;;;23.13;12.80;;;;;;;5.68;79.52;101612.81;5070180;28;20376;-35
2022/12/19 00:51:22;;;;;;;24.00;13.02;;;;;;;5.66;78.99;101613.91;5070222;28;20016;-35
2022/12/19 00:53:49;;;;;;;21.05;12.13;;;;;;;5.57;77.24;101612.00;5069872;28;20024;-38
2022/12/19 00:56:18;;;;;;;21.33;12.20;;;;;;;5.58;77.19;101616.31;5070032;28;20476;-37
2022/12/19 00:58:43;;;;;;;21.52;12.18;;;;;;;5.72;77.24;101616.03;5071937;28;20029;-37
2022/12/19 01:01:13;;;;;;;22.02;12.02;;;;;;;5.44;77.55;101615.63;5073416;28;20036;-35
2022/12/19 01:03:38;;;;;;;24.05;13.23;;;;;;;5.58;77.19;101618.94;5073484;28;20024;-36
2022/12/19 01:06:04;;;;;;;21.33;12.55;;;;;;;5.91;76.19;101617.16;5073187;28;20454;-36
2022/12/19 01:08:30;;;;;;;21.20;11.55;;;;;;;5.54;76.58;101623.66;5073187;28;20537;-36
2022/12/19 01:10:56;;;;;;;21.17;12.75;;;;;;;5.47;75.70;101604.81;5073319;28;20017;-36
2022/12/19 01:13:23;;;;;;;23.13;12.25;;;;;;;5.42;76.33;101619.38;5073372;28;20141;-36
2022/12/19 01:15:49;;;;;;;21.90;12.45;;;;;;;5.49;76.68;101616.09;5073533;28;20035;-37
2022/12/19 01:18:14;;;;;;;25.40;12.95;;;;;;;5.63;75.55;101624.69;5073431;28;20056;-36
2022/12/19 01:20:41;;;;;;;25.42;13.85;;;;;;;5.43;76.47;101628.97;5073083;28;20443;-36
2022/12/19 01:23:08;;;;;;;23.10;12.02;;;;;;;5.43;76.39;101611.31;5073161;28;20029;-36
2022/12/19 01:25:35;;;;;;;24.50;13.60;;;;;;;5.52;75.50;101617.69;5072893;28;20060;-36
2022/12/19 01:28:00;;;;;;;25.55;12.45;;;;;;;5.48;75.23;101603.88;5073107;28;20439;-36
2022/12/19 01:30:27;;;;;;;25.25;13.15;;;;;;;5.49;75.83;101613.47;5072918;28;20051;-36
2022/12/19 01:32:52;;;;;;;26.50;13.45;;;;;;;5.49;75.37;101612.63;5072827;28;20028;-37
2022/12/19 01:35:17;;;;;;;25.05;13.55;;;;;;;5.35;76.95;101607.63;5073093;28;20212;-37
2022/12/19 01:37:43;;;;;;;23.25;12.20;;;;;;;5.13;78.03;101611.97;5072902;28;20028;-36
2022/12/19 01:40:10;;;;;;;24.73;13.05;;;;;;;5.46;76.83;101615.50;5072781;28;20113;-36
2022/12/19 01:42:36;;;;;;;25.38;13.82;;;;;;;5.55;76.83;101616.56;5072572;28;20036;-37
2022/12/19 01:45:08;;;;;;;25.50;13.57;;;;;;;5.42;77.81;101625.47;5073089;28;20024;-40
2022/12/19 01:47:50;;;;;;;23.98;13.10;;;;;;;5.23;77.76;101636.69;5072935;28;20032;-35
2022/12/19 01:50:25;;;;;;;27.88;13.35;;;;;;;5.44;76.88;101620.91;5073112;28;20388;-35
2022/12/19 01:52:52;;;;;;;26.30;14.20;;;;;;;5.55;76.09;101619.22;5072437;28;20484;-36
2022/12/19 01:55:19;;;;;;;25.73;13.75;;;;;;;5.75;76.01;101628.13;5072521;28;20028;-36
2022/12/19 01:57:45;;;;;;;25.30;14.13;;;;;;;5.53;76.45;101623.78;5073040;28;20032;-36
2022/12/19 02:00:11;;;;;;;24.67;13.70;;;;;;;5.55;76.06;101622.69;5072631;28;20081;-36
2022/12/19 02:02:42;;;;;;;26.35;14.25;;;;;;;5.72;74.97;101623.13;5072571;28;20044;-37
2022/12/19 02:05:08;;;;;;;23.98;13.60;;;;;;;5.44;76.35;101618.25;5072557;28;20028;-36
2022/12/19 02:07:34;;;;;;;24.17;12.57;;;;;;;5.56;74.79;101623.53;5072290;28;20032;-36
2022/12/19 02:10:00;;;;;;;26.20;13.50;;;;;;;5.44;76.83;101631.47;5071799;28;20457;-36
2022/12/19 02:12:31;;;;;;;26.65;13.20;;;;;;;5.67;75.53;101623.47;5072306;28;20051;-36
2022/12/19 02:14:58;;;;;;;26.25;13.77;;;;;;;5.40;76.34;101632.69;5072397;28;20025;-36
2022/12/19 02:18:00;;;;;;;26.77;13.60;;;;;;;5.23;76.66;101631.41;5071562;28;20393;-36
2022/12/19 02:20:50;;;;;;;25.85;14.00;;;;;;;5.46;76.20;101637.50;5071807;28;20029;-37
2022/12/19 02:23:46;;;;;;;25.05;13.05;;;;;;;5.23;77.90;101634.03;5072268;28;20039;-36
2022/12/19 02:26:36;;;;;;;21.98;12.48;;;;;;;5.32;76.55;101642.19;5072447;28;20067;-36
2022/12/19 02:29:37;;;;;;;20.92;12.05;;;;;;;4.91;77.94;101647.13;5072122;28;20096;-36
2022/12/19 02:32:13;;;;;;;18.25;10.27;;;;;;;4.81;77.54;101651.47;5071817;28;20077;-36
2022/12/19 02:34:44;;;;;;;20.77;11.25;;;;;;;5.06;77.30;101643.31;5072144;28;20029;-36
2022/12/19 02:37:16;;;;;;;22.33;11.40;;;;;;;5.12;76.64;101649.06;5071750;28;20027;-37
2022/12/19 02:39:53;;;;;;;20.77;11.23;;;;;;;4.96;76.37;101668.72;5071555;28;20031;-36
2022/12/19 02:42:32;;;;;;;18.63;9.80;;;;;;;4.69;78.10;101655.91;5071728;28;20437;-36
2022/12/19 02:45:00;;;;;;;21.30;10.50;;;;;;;4.82;79.11;101668.97;5071346;28;20020;-36
2022/12/19 02:47:27;;;;;;;21.40;11.18;;;;;;;4.82;79.28;101659.25;5071120;28;20039;-36
2022/12/19 02:49:52;;;;;;;20.75;11.32;;;;;;;5.03;78.58;101651.47;5071424;28;20012;-36
2022/12/19 02:52:18;;;;;;;21.88;11.00;;;;;;;4.81;79.07;101654.94;5071044;28;20020;-36
2022/12/19 02:54:44;;;;;;;19.08;10.02;;;;;;;4.74;79.43;101668.72;5071300;28;20032;-36
2022/12/19 02:57:38;;;;;;;17.20;8.77;;;;;;;4.40;81.37;101690.59;5071257;28;20024;-37
2022/12/19 03:00:19;;;;;;;20.85;10.82;;;;;;;4.54;80.26;101672.91;5071442;28;20023;-35
2022/12/19 03:02:53;;;;;;;18.20;10.27;;;;;;;4.74;80.15;101669.56;5071503;28;20183;-36
2022/12/19 03:05:30;;;;;;;17.38;9.20;;;;;;;4.70;79.66;101676.03;5071528;28;20533;-36
2022/12/19 03:07:58;;;;;;;19.27;10.00;;;;;;;4.75;79.44;101679.16;5071390;28;20438;-36
2022/12/19 03:10:37;;;;;;;16.95;9.38;;;;;;;4.48;80.82;101676.84;5071374;28;20479;-36
2022/12/19 03:13:32;;;;;;;20.23;10.50;;;;;;;4.64;79.90;101679.97;5071445;28;20477;-36
2022/12/19 03:15:58;;;;;;;18.63;10.40;;;;;;;4.53;80.01;101689.66;5070944;28;20043;-36
2022/12/19 03:18:25;;;;;;;16.05;8.23;;;;;;;4.22;80.87;101684.91;5071010;28;20072;-36
2022/12/19 03:21:03;;;;;;;18.90;9.90;;;;;;;4.13;83.00;101680.31;5070997;28;20219;-37
2022/12/19 03:23:29;;;;;;;17.63;10.02;;;;;;;4.01;83.30;101697.03;5070503;28;20047;-37
2022/12/19 03:25:59;;;;;;;19.50;10.95;;;;;;;4.17;83.34;101702.00;5070985;28;20480;-37
2022/12/19 03:28:42;;;;;;;20.75;11.05;;;;;;;4.18;83.30;101699.25;5071133;28;20020;-37
2022/12/19 03:31:10;;;;;;;18.92;11.15;;;;;;;4.23;83.53;101689.22;5071111;28;20468;-37
2022/12/19 03:33:39;;;;;;;20.95;11.00;;;;;;;4.33;82.94;101699.09;5071035;28;20168;-37
2022/12/19 03:36:09;;;;;;;18.70;10.30;;;;;;;4.29;82.71;101711.66;5070991;28;20040;-36
2022/12/19 03:38:37;;;;;;;19.00;10.57;;;;;;;4.46;82.21;101716.50;5070289;28;20127;-36
2022/12/19 03:41:04;;;;;;;19.67;10.73;;;;;;;4.42;83.72;101712.41;5070388;28;20024;-36
2022/12/19 03:43:32;;;;;;;20.55;11.13;;;;;;;4.15;83.06;101712.69;5070712;28;20195;-36
2022/12/19 03:46:01;;;;;;;24.00;11.23;;;;;;;4.05;83.80;101722.22;5070148;28;20100;-37
2022/12/19 03:48:39;;;;;;;22.42;10.75;;;;;;;4.07;84.42;101731.69;5070543;28;20020;-36
2022/12/19 03:51:12;;;;;;;18.15;10.10;;;;;;;4.17;83.13;101734.50;5070666;28;20392;-36
2022/12/19 03:53:46;;;;;;;19.02;9.85;;;;;;;4.04;82.03;101726.63;5070746;28;20086;-40
2022/12/19 03:56:33;;;;;;;21.38;11.20;;;;;;;4.03;82.35;101743.38;5069157;28;20032;-36
2022/12/19 03:59:37;;;;;;;20.10;10.52;;;;;;;4.23;81.82;101738.47;5070635;28;20021;-36
2022/12/19 04:02:03;;;;;;;18.02;9.80;;;;;;;4.11;82.30;101733.16;5066615;28;20044;-36
2022/12/19 04:04:33;;;;;;;19.00;9.48;;;;;;;3.94;82.48;101743.22;5070816;28;20028;-36
2022/12/19 04:07:00;;;;;;;19.52;10.13;;;;;;;4.03;82.16;101739.91;5070518;28;20020;-35
2022/12/19 04:09:25;;;;;;;21.38;11.23;;;;;;;4.02;82.72;101740.91;5070540;28;20051;-36
2022/12/19 04:12:05;;;;;;;20.55;11.45;;;;;;;3.98;81.56;101749.94;5070491;28;20032;-36
2022/12/19 04:14:34;;;;;;;21.23;11.25;;;;;;;3.95;81.58;101742.28;5070563;28;20090;-36
2022/12/19 04:17:30;;;;;;;19.45;10.88;;;;;;;3.94;81.46;101730.91;5070480;28;20037;-36
2022/12/19 04:19:55;;;;;;;19.02;10.23;;;;;;;3.92;81.49;101738.91;5070293;28;20382;-36
2022/12/19 04:22:51;;;;;;;19.77;10.60;;;;;;;4.01;81.23;101728.66;5070386;28;20101;-36
2022/12/19 04:25:21;;;;;;;22.90;11.75;;;;;;;4.04;80.80;101746.88;5057063;28;20037;-36
2022/12/19 04:27:50;;;;;;;;;;;;;;;3.90;81.70;101738.19;5070969;28;20028;-35
2022/12/19 04:30:17;;;;;;;21.63;10.65;;;;;;;4.06;82.11;101739.72;5070641;28;19916;-35
2022/12/19 04:32:43;;;;;;;25.02;11.18;;;;;;;4.11;81.65;101732.28;5070902;28;20154;-36
2022/12/19 04:35:09;;;;;;;19.92;10.50;;;;;;;4.15;81.47;101739.03;5074198;28;20455;-36
2022/12/19 04:37:35;;;;;;;22.02;11.68;;;;;;;4.32;80.85;101729.84;5073918;28;20099;-36
2022/12/19 04:40:00;;;;;;;20.25;11.10;;;;;;;4.29;81.04;101735.38;5073704;28;20389;-35
2022/12/19 04:42:26;;;;;;;19.70;11.00;;;;;;;4.34;81.04;101737.66;5074116;28;20029;-36
2022/12/19 04:44:51;;;;;;;21.83;10.95;;;;;;;4.33;80.96;101738.63;5073814;28;20020;-36
2022/12/19 04:47:17;;;;;;;22.05;11.15;;;;;;;4.36;80.63;101748.94;5073983;28;20035;-36
2022/12/19 04:49:42;;;;;;;20.55;11.63;;;;;;;4.26;81.05;101738.22;5072212;28;20024;-36
2022/12/19 04:52:07;;;;;;;23.40;12.55;;;;;;;4.29;81.33;101736.22;5074113;28;20153;-36
2022/12/19 04:54:33;;;;;;;22.10;11.65;;;;;;;4.51;80.33;101747.78;5072351;28;20024;-35
2022/12/19 04:56:58;;;;;;;23.35;12.68;;;;;;;4.59;79.49;101747.19;5073264;28;20028;-36
2022/12/19 04:59:24;;;;;;;21.40;12.32;;;;;;;4.46;80.10;101756.03;5072853;28;20107;-36
2022/12/19 05:01:49;;;;;;;22.80;12.95;;;;;;;4.59;79.97;101757.75;5072819;28;20393;-36
2022/12/19 05:04:15;;;;;;;22.65;11.98;;;;;;;4.45;79.94;101742.97;5073144;28;20028;-35
2022/12/19 05:06:40;;;;;;;22.98;13.05;;;;;;;4.49;79.79;101757.59;5073024;28;20395;-36
2022/12/19 05:09:05;;;;;;;22.95;12.57;;;;;;;4.65;79.30;101758.16;5072799;28;20024;-36
2022/12/19 05:11:31;;;;;;;20.75;11.93;;;;;;;4.50;79.19;101775.13;5073059;28;20021;-36
2022/12/19 05:13:58;;;;;;;22.75;12.50;;;;;;;4.64;79.34;101771.44;5072957;28;20437;-36
2022/12/19 05:16:23;;;;;;;24.17;13.30;;;;;;;4.70;78.94;101782.38;5072700;28;20032;-35
2022/12/19 05:18:48;;;;;;;24.38;13.00;;;;;;;4.79;78.83;101778.19;5071657;28;20099;-35
2022/12/19 05:21:14;;;;;;;22.85;12.93;;;;;;;4.78;78.80;101778.31;5072602;28;20108;-36
2022/12/19 05:23:39;;;;;;;22.60;13.27;;;;;;;4.61;79.03;101783.06;5072694;28;20032;-36
2022/12/19 05:26:05;;;;;;;24.42;12.57;;;;;;;4.58;79.35;101785.09;5072476;28;20465;-36
2022/12/19 05:28:31;;;;;;;22.48;12.40;;;;;;;4.42;78.80;101786.22;5072858;28;20107;-37
2022/12/19 05:31:23;;;;;;;23.58;12.25;;;;;;;4.76;77.82;101793.41;5072374;28;20128;-37
2022/12/19 05:33:49;;;;;;;21.70;11.90;;;;;;;4.82;77.31;101785.06;5057887;28;20052;-37
2022/12/19 05:36:15;;;;;;;25.08;13.32;;;;;;;4.72;76.81;101789.31;5052134;28;20025;-37
2022/12/19 05:38:41;;;;;;;24.30;14.05;;;;;;;4.82;75.34;101783.25;5057852;28;20032;-36
2022/12/19 05:41:14;;;;;;;24.20;13.52;;;;;;;4.97;75.68;101794.44;5071744;28;20024;-37
2022/12/19 05:43:40;;;;;;;23.45;13.20;;;;;;;5.14;81.29;101792.28;5071694;28;20025;-37
2022/12/19 05:46:06;;;;;;;25.67;12.95;;;;;;;5.49;77.20;101790.41;5071017;28;20108;-37
2022/12/19 05:48:32;;;;;;;23.08;12.57;;;;;;;6.14;73.70;101789.75;5077818;28;20514;-36
2022/12/19 05:50:57;;;;;;;23.38;12.30;;;;;;;6.16;71.13;101796.59;5091133;28;20027;-36
2022/12/19 05:53:23;;;;;;;21.98;11.95;;;;;;;6.65;74.35;101795.19;5090732;28;20027;-36
2022/12/19 05:55:48;;;;;;;19.75;12.05;;;;;;;6.24;69.54;101803.88;5090539;28;20032;-37
2022/12/19 05:58:13;;;;;;;22.45;12.32;;;;;;;5.77;69.79;101809.38;5090395;28;20020;-36
2022/12/19 06:00:39;;;;;;;23.23;12.52;;;;;;;5.44;70.03;101812.84;5090760;28;20233;-37
2022/12/19 06:03:04;;;;;;;21.02;12.40;;;;;;;5.13;71.24;101803.81;5091263;28;20027;-36
2022/12/19 06:05:30;;;;;;;23.05;11.68;;;;;;;4.95;72.18;101800.78;5091382;28;20487;-36
2022/12/19 06:07:56;;;;;;;23.65;13.32;;;;;;;5.10;72.01;101810.16;5079510;28;20028;-36
2022/12/19 06:10:21;;;;;;;21.30;11.48;;;;;;;5.04;71.99;101808.84;5071366;28;20017;-36
2022/12/19 06:12:47;;;;;;;22.52;12.27;;;;;;;5.27;71.34;101811.50;5056580;28;20718;-36
2022/12/19 06:15:13;;;;;;;22.95;13.15;;;;;;;5.15;71.59;101815.09;5050489;28;20035;-36
2022/12/19 06:17:38;;;;;;;43.60;22.15;;;;;;;5.19;71.42;101827.09;5051233;28;20128;-36
2022/12/19 06:20:05;;;;;;;21.58;11.35;;;;;;;4.92;70.77;101825.59;5050311;28;20021;-37
2022/12/19 06:22:30;;;;;;;21.75;12.25;;;;;;;5.01;70.46;101824.91;5050101;28;20032;-37
2022/12/19 06:24:56;;;;;;;19.33;11.73;;;;;;;4.98;70.37;101833.06;5050746;28;20033;-37
2022/12/19 06:27:21;;;;;;;21.30;11.30;;;;;;;5.11;70.41;101840.88;5049943;28;20075;-37
2022/12/19 06:29:47;;;;;;;24.27;12.32;;;;;;;5.15;70.07;101833.59;5049941;28;20021;-37
2022/12/19 06:32:12;;;;;;;19.15;10.27;;;;;;;4.87;71.15;101835.66;5050301;28;20025;-37
2022/12/19 06:34:37;;;;;;;21.45;11.75;;;;;;;4.96;70.79;101842.06;5050172;28;20462;-37
2022/12/19 06:37:03;;;;;;;21.58;12.23;;;;;;;4.86;70.45;101841.91;5050470;28;20021;-37
2022/12/19 06:39:28;;;;;;;19.27;10.50;;;;;;;4.98;70.36;101846.25;5060839;28;20468;-37
2022/12/19 06:44:37;;;;;;;19.80;10.93;;;;;;;4.98;70.15;101848.88;5070729;28;20091;-36
2022/12/19 06:47:03;;;;;;;17.27;10.13;;;;;;;5.08;68.97;101839.34;5071037;28;20021;-37
2022/12/19 06:49:28;;;;;;;19.50;10.20;;;;;;;5.10;68.77;101852.38;5070979;28;20046;-37
2022/12/19 06:51:54;;;;;;;18.48;10.40;;;;;;;5.17;68.68;101852.78;5070806;28;20511;-36
2022/12/19 06:54:19;;;;;;;18.75;10.32;;;;;;;5.07;68.54;101850.84;5070718;28;20030;-37
2022/12/19 06:56:44;;;;;;;19.40;10.07;;;;;;;5.20;67.55;101857.84;5070151;28;20078;-36
2022/12/19 06:59:12;;;;;;;21.65;10.23;;;;;;;5.23;67.75;101873.44;5070843;28;20337;-37
2022/12/19 07:01:43;;;;;;;19.02;10.52;;;;;;;5.26;67.09;101873.22;5071011;28;20119;-36
2022/12/19 07:04:12;;;;;;;20.27;9.40;;;;;;;5.27;66.93;101872.22;5070333;28;20463;-37
2022/12/19 07:06:37;;;;;;;17.35;9.98;;;;;;;5.07;67.34;101865.84;5070361;28;20132;-36
2022/12/19 07:09:04;;;;;;;18.92;10.63;;;;;;;5.25;67.24;101871.50;5070977;28;20501;-36
2022/12/19 07:11:30;;;;;;;18.63;9.80;;;;;;;5.42;67.46;101875.50;5070754;28;20396;-36
2022/12/19 07:13:55;;;;;;;19.50;9.45;;;;;;;5.02;67.58;101878.53;5070159;28;20028;-36
2022/12/19 07:16:22;;;;;;;20.42;10.18;;;;;;;5.03;67.59;101881.06;5069892;28;20454;-36
2022/12/19 07:18:48;;;;;;;17.63;9.73;;;;;;;5.07;68.09;101887.78;5070120;28;20051;-36
2022/12/19 07:21:13;;;;;;;21.13;10.15;;;;;;;5.13;66.85;101883.84;5069357;28;20020;-38
2022/12/19 07:23:39;;;;;;;18.17;10.02;;;;;;;5.10;67.62;101889.34;5070152;28;20032;-36
2022/12/19 07:26:05;;;;;;;17.88;9.57;;;;;;;5.21;67.16;101893.81;5070255;28;20043;-36
2022/12/19 07:28:33;;;;;;;22.42;10.85;;;;;;;5.19;66.81;101895.75;5069836;28;20028;-37
2022/12/19 07:30:58;;;;;;;18.42;10.75;;;;;;;5.17;66.31;101889.75;5069465;28;20418;-35
2022/12/19 07:33:24;;;;;;;19.98;10.23;;;;;;;5.13;67.05;101897.03;5069451;28;20485;-37
2022/12/19 07:35:49;;;;;;;23.38;9.93;;;;;;;5.37;66.94;101901.41;5069695;28;20151;-37
2022/12/19 07:38:15;;;;;;;24.05;11.05;;;;;;;5.35;65.49;101896.28;5069826;28;20047;-37
2022/12/19 07:40:40;;;;;;;18.65;10.02;;;;;;;5.42;65.65;101902.75;5069517;28;20025;-37
2022/12/19 07:43:06;;;;;;;21.25;10.68;;;;;;;5.30;64.74;101927.44;5069330;28;20024;-36
2022/12/19 07:45:32;;;;;;;20.60;10.95;;;;;;;5.26;65.29;101905.72;5069059;28;20158;-36
2022/12/19 07:48:02;;;;;;;19.58;10.40;;;;;;;5.39;64.80;101910.09;5069310;28;20075;-36
2022/12/19 07:50:28;;;;;;;18.20;9.57;;;;;;;5.41;63.82;101918.72;5069337;28;20029;-36
2022/12/19 07:52:53;;;;;;;18.85;10.52;;;;;;;5.08;66.55;101923.78;5069994;28;20063;-37
2022/12/19 07:55:19;;;;;;;21.30;10.73;;;;;;;5.23;65.90;101915.66;5069775;28;20025;-37
2022/12/19 07:57:44;;;;;;;18.00;9.90;;;;;;;5.20;66.13;101914.09;5070166;28;20107;-36
2022/12/19 08:00:10;;;;;;;20.98;10.38;;;;;;;5.25;66.10;101922.53;5068860;28;20029;-36
2022/12/19 08:02:35;;;;;;;20.63;10.65;;;;;;;5.23;66.17;101920.94;5068886;28;20406;-36
2022/12/19 08:05:01;;;;;;;18.85;10.07;;;;;;;5.03;66.87;101925.94;5069139;28;20039;-36
2022/12/19 08:07:26;;;;;;;20.58;11.00;;;;;;;5.23;66.36;101926.22;5069385;28;20103;-36
2022/12/19 08:09:52;;;;;;;19.10;10.15;;;;;;;5.01;66.68;101938.41;5072953;28;20447;-37
2022/12/19 08:12:17;;;;;;;17.77;9.75;;;;;;;4.98;66.08;101949.16;5073564;28;20029;-36
2022/12/19 08:14:43;;;;;;;20.17;10.27;;;;;;;5.27;65.57;101939.09;5073345;28;20481;-36
2022/12/19 08:17:08;;;;;;;18.60;10.15;;;;;;;5.51;64.15;101942.63;5072979;28;20040;-36
2022/12/19 08:19:34;;;;;;;18.52;9.00;;;;;;;5.35;64.80;101967.56;5072978;28;20502;-36
2022/12/19 08:21:59;;;;;;;18.00;9.50;;;;;;;5.09;64.59;101951.84;5073288;28;20107;-36
2022/12/19 08:24:25;;;;;;;19.90;10.10;;;;;;;5.27;64.50;101952.31;5072806;28;20028;-36
2022/12/19 08:26:50;;;;;;;18.00;9.57;;;;;;;5.20;64.39;101958.16;5073378;28;20024;-36
2022/12/19 08:29:15;;;;;;;17.52;9.85;;;;;;;5.33;64.11;101956.28;5071810;28;20421;-36
2022/12/19 08:31:41;;;;;;;18.92;10.32;;;;;;;5.24;64.25;101943.75;5073292;28;20078;-36
2022/12/19 08:34:06;;;;;;;19.98;10.48;;;;;;;5.39;64.04;101931.22;5072697;28;20059;-37
2022/12/19 08:36:32;;;;;;;17.30;9.52;;;;;;;5.22;64.44;101949.16;5072876;28;20036;-36
2022/12/19 08:38:57;;;;;;;18.33;10.75;;;;;;;5.52;63.41;101942.53;5072700;28;20025;-36
2022/12/19 08:41:23;;;;;;;17.23;9.85;;;;;;;5.55;63.93;101952.00;5072508;28;20500;-36
2022/12/19 08:43:51;;;;;;;21.23;9.57;;;;;;;5.08;64.35;101955.47;5073534;28;20032;-35
2022/12/19 08:46:17;;;;;;;22.50;10.32;;;;;;;5.45;64.46;101960.63;5073403;28;20048;-36
2022/12/19 08:48:43;;;;;;;19.17;10.00;;;;;;;5.38;63.74;101980.53;5073629;28;20021;-36
2022/12/19 08:51:11;;;;;;;20.08;10.45;;;;;;;5.19;64.39;101964.38;5073316;28;20433;-37
2022/12/19 08:53:38;;;;;;;19.88;10.45;;;;;;;5.21;65.33;101965.94;5073249;28;20027;-37
2022/12/19 08:56:19;;;;;;;21.05;10.70;;;;;;;5.16;64.66;101968.09;5073251;28;20690;-38
2022/12/19 08:58:45;;;;;;;21.83;10.75;;;;;;;5.36;64.32;101958.66;5073112;28;20423;-36
2022/12/19 09:01:17;;;;;;;21.20;10.10;;;;;;;5.38;64.10;101955.91;5073041;28;20038;-37
2022/12/19 09:03:43;;;;;;;19.15;9.70;;;;;;;5.22;64.98;101950.97;5073324;28;20024;-37
2022/12/19 09:06:10;;;;;;;22.38;10.80;;;;;;;5.32;64.06;101966.94;5073150;28;20484;-37
2022/12/19 09:08:36;;;;;;;18.90;9.48;;;;;;;5.16;64.81;101954.91;5073194;28;20105;-37
2022/12/19 09:11:07;;;;;;;22.23;9.00;;;;;;;5.18;64.62;101958.25;5073303;28;20029;-36
2022/12/19 09:13:33;;;;;;;20.83;11.23;;;;;;;5.42;64.38;101950.28;5072990;28;20029;-36
2022/12/19 09:16:13;;;;;;;20.83;9.43;;;;;;;5.19;64.48;101969.66;5073209;28;20103;-36
2022/12/19 09:18:39;;;;;;;24.70;10.18;;;;;;;5.29;65.23;101942.47;5072268;28;20469;-38
2022/12/19 09:21:05;;;;;;;17.83;9.60;;;;;;;5.29;64.65;101950.38;5071888;28;20040;-36
2022/12/19 09:23:31;;;;;;;22.23;10.50;;;;;;;5.48;64.11;101952.47;5072438;28;20028;-36
2022/12/19 09:26:09;;;;;;;18.77;9.35;;;;;;;5.33;65.21;101961.56;5071283;28;20024;-36
2022/12/19 09:28:35;;;;;;;18.55;9.65;;;;;;;5.25;64.97;101935.72;5072279;28;20029;-35
2022/12/19 09:31:03;;;;;;;19.38;9.52;;;;;;;5.13;65.85;101951.63;5071032;28;20473;-36
2022/12/19 09:33:31;;;;;;;20.52;9.68;;;;;;;5.22;65.09;101945.69;5071524;28;20508;-35
2022/12/19 09:35:57;;;;;;;18.02;9.65;;;;;;;5.22;64.42;101948.31;5071663;28;20408;-37
2022/12/19 09:38:24;;;;;;;20.48;9.65;;;;;;;5.33;63.70;101940.44;5071705;28;20028;-36
2022/12/19 09:41:18;;;;;;;15.75;8.70;;;;;;;4.99;64.49;101947.34;5071793;28;20401;-36
2022/12/19 09:44:05;;;;;;;15.77;8.68;;;;;;;5.20;62.90;101948.44;5071529;28;20039;-36
2022/12/19 09:46:46;;;;;;;18.25;8.85;;;;;;;5.25;62.84;101948.94;5071450;28;20269;-36
2022/12/19 09:49:15;;;;;;;17.42;8.40;;;;;;;5.11;64.00;101943.00;5071084;28;20107;-34
2022/12/19 09:51:46;;;;;;;15.45;8.35;;;;;;;4.93;64.55;101934.63;5071829;28;20196;-36
2022/12/19 09:54:19;;;;;;;16.88;8.88;;;;;;;5.26;63.90;101931.28;5071886;28;20486;-36
2022/12/19 09:56:47;;;;;;;18.52;9.15;;;;;;;5.13;64.23;101914.69;5072247;28;20032;-37
2022/12/19 09:59:30;;;;;;;14.68;7.53;;;;;;;5.08;63.51;101925.56;5072059;28;20079;-36
2022/12/19 10:02:22;;;;;;;17.30;8.93;;;;;;;5.43;62.40;101922.94;5071028;28;20064;-36
2022/12/19 10:04:54;;;;;;;16.73;8.32;;;;;;;4.80;63.50;101906.53;5071441;28;20063;-36
2022/12/19 10:07:21;;;;;;;16.92;8.48;;;;;;;5.11;62.94;101935.06;5070898;28;20495;-36
2022/12/19 10:09:46;;;;;;;15.20;8.15;;;;;;;5.09;63.97;101927.28;5070733;28;20056;-36
2022/12/19 10:12:21;;;;;;;16.27;8.43;;;;;;;5.41;62.39;101913.44;5070733;28;20066;-36
2022/12/19 10:14:58;;;;;;;19.13;8.95;;;;;;;5.28;63.12;101902.97;5070735;28;20403;-37
2022/12/19 10:17:58;;;;;;;18.85;8.85;;;;;;;5.45;62.46;101901.69;5070404;28;20147;-36
2022/12/19 10:20:31;;;;;;;17.60;8.27;;;;;;;5.24;62.95;101888.31;5070978;28;20029;-36
2022/12/19 10:23:15;;;;;;;19.35;9.60;;;;;;;5.36;62.22;101894.47;5070441;28;20618;-36
2022/12/19 10:25:46;;;;;;;15.35;8.23;;;;;;;5.57;61.68;101884.06;5070577;28;20025;-37
2022/12/19 10:28:41;;;;;;;18.17;8.65;;;;;;;5.49;62.59;101884.66;5070778;28;20166;-35
2022/12/19 10:31:30;;;;;;;15.90;8.90;;;;;;;4.94;61.51;101844.81;5068897;28;20083;-37
2022/12/19 10:34:23;;;;;;;16.52;7.78;;;;;;;5.35;61.82;101875.16;5070380;28;20036;-36
2022/12/19 10:36:56;;;;;;;15.98;8.07;;;;;;;5.18;61.17;101876.44;5068552;28;20033;-37
2022/12/19 10:39:48;;;;;;;14.23;7.45;;;;;;;4.74;61.75;101877.09;5070888;28;20036;-35
2022/12/19 10:42:23;;;;;;;13.18;7.60;;;;;;;5.10;61.21;101868.22;5064544;28;20405;-36
2022/12/19 10:44:53;;;;;;;14.27;7.63;;;;;;;4.92;62.78;101857.28;5070467;28;20046;-36
2022/12/19 10:47:18;;;;;;;16.02;7.90;;;;;;;5.02;63.43;101868.81;5070521;28;20030;-36
2022/12/19 10:49:44;;;;;;;16.40;8.70;;;;;;;5.20;63.94;101863.94;5070511;28;20028;-36
2022/12/19 10:52:10;;;;;;;18.23;8.15;;;;;;;5.09;65.21;101851.56;5070082;28;20020;-36
2022/12/19 10:54:36;;;;;;;17.02;7.70;;;;;;;5.28;64.62;101855.44;5070025;28;20067;-36
2022/12/19 10:57:27;;;;;;;17.70;8.90;;;;;;;5.66;63.32;101856.94;5069772;28;20042;-36
2022/12/19 11:00:05;;;;;;;18.85;8.18;;;;;;;5.56;63.09;101855.94;5069998;28;20107;-36
2022/12/19 11:02:45;;;;;;;12.30;6.32;;;;;;;4.93;63.63;101858.09;5069779;28;20107;-37
2022/12/19 11:05:27;;;;;;;16.73;8.27;;;;;;;5.05;64.24;101871.22;5069888;28;20035;-37
2022/12/19 11:08:14;;;;;;;15.45;7.13;;;;;;;5.20;64.24;101858.66;5070084;28;20089;-37
2022/12/19 11:10:49;;;;;;;14.38;7.03;;;;;;;5.29;62.50;101855.34;5069752;28;20408;-36
2022/12/19 11:13:43;;;;;;;13.98;6.93;;;;;;;5.19;62.10;101849.06;5070132;28;20447;-36
2022/12/19 11:16:09;;;;;;;15.23;7.05;;;;;;;5.24;61.64;101844.28;5070421;28;20108;-36
2022/12/19 11:18:38;;;;;;;16.35;6.20;;;;;;;5.19;61.78;101862.25;5069832;28;20078;-37
2022/12/19 11:21:15;;;;;;;12.40;6.43;;;;;;;5.44;60.69;101855.09;5069760;28;20078;-36
2022/12/19 11:23:59;;;;;;;12.85;5.65;;;;;;;5.32;58.84;101851.59;5069551;28;20055;-38
2022/12/19 11:26:48;;;;;;;9.07;5.03;;;;;;;4.90;58.54;101851.28;5069678;28;20105;-37
2022/12/19 11:29:22;;;;;;;11.88;5.28;;;;;;;5.00;58.61;101846.13;5069456;28;20089;-36
2022/12/19 11:31:55;;;;;;;8.90;5.35;;;;;;;5.36;57.59;101844.28;5069862;28;20017;-35
2022/12/19 11:34:23;;;;;;;8.90;5.10;;;;;;;5.31;56.53;101843.81;5069752;28;20103;-37